createdAt,value
2022-11-09T00:00:51.449Z,11.75
2022-11-09T00:03:18.356Z,11.63
2022-11-09T00:05:55.396Z,11.79
2022-11-09T00:08:22.061Z,11.69
2022-11-09T00:10:48.613Z,11.81
2022-11-09T00:13:15.314Z,11.71
2022-11-09T00:15:42.130Z,11.85
2022-11-09T00:18:08.741Z,11.85
2022-11-09T00:20:35.364Z,11.81
2022-11-09T00:23:01.985Z,11.75
2022-11-09T00:25:28.654Z,11.69
2022-11-09T00:27:55.288Z,11.65
2022-11-09T00:30:21.910Z,11.42
2022-11-09T00:32:48.516Z,11.30
2022-11-09T00:35:15.494Z,11.11
2022-11-09T00:37:42.081Z,11.02
2022-11-09T00:40:09.638Z,11.09
2022-11-09T00:42:36.164Z,11.06
2022-11-09T00:45:02.831Z,11.21
2022-11-09T00:47:29.443Z,11.23
2022-11-09T00:49:57.000Z,11.24
2022-11-09T00:52:23.569Z,11.24
2022-11-09T00:54:50.170Z,11.24
2022-11-09T00:57:17.147Z,11.35
2022-11-09T00:59:43.780Z,11.39
2022-11-09T01:02:10.386Z,11.39
2022-11-09T01:04:37.056Z,11.46
2022-11-09T01:07:03.759Z,11.54
2022-11-09T01:09:30.432Z,11.52
2022-11-09T01:11:56.983Z,11.33
2022-11-09T01:14:24.042Z,11.46
2022-11-09T01:16:50.783Z,11.44
2022-11-09T01:19:17.317Z,11.47
2022-11-09T01:21:43.956Z,11.46
2022-11-09T01:24:11.019Z,11.43
2022-11-09T01:26:37.559Z,11.27
2022-11-09T01:29:04.083Z,11.27
2022-11-09T01:31:30.702Z,11.24
2022-11-09T01:33:57.194Z,11.23
2022-11-09T01:36:24.581Z,11.28
2022-11-09T01:38:51.741Z,11.44
2022-11-09T01:41:21.988Z,11.41
2022-11-09T01:44:11.600Z,11.45
2022-11-09T01:46:40.811Z,11.26
2022-11-09T01:49:20.923Z,11.23
2022-11-09T01:51:58.541Z,11.29
2022-11-09T01:54:31.943Z,11.45
2022-11-09T01:57:04.058Z,11.50
2022-11-09T01:59:34.116Z,11.51
2022-11-09T02:02:00.990Z,11.50
2022-11-09T02:04:33.224Z,11.53
2022-11-09T02:07:00.289Z,11.47
2022-11-09T02:09:49.445Z,11.57
2022-11-09T02:12:18.223Z,11.59
2022-11-09T02:14:45.577Z,11.69
2022-11-09T02:17:12.523Z,11.73
2022-11-09T02:19:39.055Z,11.77
2022-11-09T02:22:05.864Z,11.63
2022-11-09T02:24:33.897Z,11.91
2022-11-09T02:27:01.015Z,11.72
2022-11-09T02:29:37.279Z,11.82
2022-11-09T02:32:08.632Z,11.96
2022-11-09T02:34:35.209Z,11.96
2022-11-09T02:37:01.729Z,12.03
2022-11-09T02:39:28.854Z,12.02
2022-11-09T02:42:13.727Z,12.02
2022-11-09T02:44:47.892Z,12.02
2022-11-09T02:47:14.427Z,11.93
2022-11-09T02:49:41.210Z,11.87
2022-11-09T02:52:07.954Z,12.04
2022-11-09T02:54:34.550Z,12.03
2022-11-09T02:57:01.097Z,12.00
2022-11-09T02:59:27.622Z,12.00
2022-11-09T03:01:54.130Z,11.97
2022-11-09T03:04:20.738Z,11.90
2022-11-09T03:06:47.341Z,11.98
2022-11-09T03:09:13.916Z,12.01
2022-11-09T03:11:41.433Z,12.01
2022-11-09T03:14:09.807Z,11.95
2022-11-09T03:16:40.125Z,12.02
2022-11-09T03:19:07.258Z,12.03
2022-11-09T03:21:34.540Z,12.04
2022-11-09T03:24:01.134Z,11.91
2022-11-09T03:26:27.643Z,12.13
2022-11-09T03:28:54.194Z,12.09
2022-11-09T03:31:20.811Z,11.93
2022-11-09T03:33:47.429Z,12.10
2022-11-09T03:36:13.924Z,11.92
2022-11-09T03:38:40.466Z,12.04
2022-11-09T03:41:07.000Z,12.01
2022-11-09T03:43:33.558Z,12.05
2022-11-09T03:46:00.104Z,11.78
2022-11-09T03:48:26.663Z,12.08
2022-11-09T03:50:53.163Z,12.05
2022-11-09T03:53:19.983Z,11.92
2022-11-09T03:55:46.759Z,12.02
2022-11-09T03:58:13.351Z,12.05
2022-11-09T04:00:40.189Z,12.07
2022-11-09T04:03:06.821Z,12.06
2022-11-09T04:05:33.456Z,12.04
2022-11-09T04:08:00.201Z,12.06
2022-11-09T04:10:27.438Z,12.00
2022-11-09T04:12:54.289Z,12.09
2022-11-09T04:15:21.492Z,12.07
2022-11-09T04:17:59.147Z,11.94
2022-11-09T04:20:27.006Z,12.09
2022-11-09T04:22:57.951Z,12.08
2022-11-09T04:25:26.170Z,12.04
2022-11-09T04:27:57.362Z,12.01
2022-11-09T04:30:24.921Z,12.03
2022-11-09T04:32:51.529Z,12.05
2022-11-09T04:35:18.060Z,11.92
2022-11-09T04:37:44.647Z,12.10
2022-11-09T04:40:11.807Z,12.09
2022-11-09T04:42:38.340Z,12.08
2022-11-09T04:45:05.644Z,11.92
2022-11-09T04:47:32.211Z,12.07
2022-11-09T04:49:58.761Z,12.08
2022-11-09T04:52:25.278Z,12.09
2022-11-09T04:54:51.755Z,12.09
2022-11-09T04:57:18.280Z,12.11
2022-11-09T04:59:44.802Z,12.09
2022-11-09T05:02:11.376Z,12.10
2022-11-09T05:04:37.945Z,12.09
2022-11-09T05:07:04.542Z,12.12
2022-11-09T05:09:31.183Z,12.20
2022-11-09T05:11:57.777Z,12.22
2022-11-09T05:14:24.388Z,12.21
2022-11-09T05:16:50.989Z,12.30
2022-11-09T05:19:17.535Z,12.31
2022-11-09T05:21:44.235Z,12.29
2022-11-09T05:24:11.075Z,12.28
2022-11-09T05:26:39.943Z,12.31
2022-11-09T05:29:11.660Z,12.32
2022-11-09T05:31:39.026Z,12.30
2022-11-09T05:34:06.993Z,12.36
2022-11-09T05:36:34.031Z,12.35
2022-11-09T05:39:00.903Z,12.34
2022-11-09T05:41:28.060Z,12.32
2022-11-09T05:43:54.869Z,12.18
2022-11-09T05:46:21.403Z,12.23
2022-11-09T05:48:47.993Z,12.26
2022-11-09T05:51:15.418Z,12.32
2022-11-09T05:53:46.117Z,12.28
2022-11-09T05:56:13.657Z,12.39
2022-11-09T05:58:41.581Z,12.41
2022-11-09T06:01:13.531Z,12.37
2022-11-09T06:03:42.070Z,12.44
2022-11-09T06:06:10.447Z,12.40
2022-11-09T06:08:37.284Z,12.24
2022-11-09T06:11:06.699Z,12.34
2022-11-09T06:13:34.032Z,12.36
2022-11-09T06:16:03.178Z,12.37
2022-11-09T06:18:31.408Z,12.38
2022-11-09T06:21:01.147Z,12.39
2022-11-09T06:23:29.405Z,12.29
2022-11-09T06:26:09.729Z,12.20
2022-11-09T06:28:38.109Z,12.15
2022-11-09T06:31:07.357Z,12.43
2022-11-09T06:33:35.916Z,12.38
2022-11-09T06:36:03.265Z,12.35
2022-11-09T06:38:30.297Z,12.30
2022-11-09T06:40:59.489Z,12.29
2022-11-09T06:43:27.337Z,12.24
2022-11-09T06:45:54.315Z,12.23
2022-11-09T06:48:21.131Z,12.24
2022-11-09T06:50:47.745Z,12.25
2022-11-09T06:53:16.075Z,12.27
2022-11-09T06:55:48.801Z,12.24
2022-11-09T06:58:16.823Z,12.18
2022-11-09T07:00:44.498Z,12.09
2022-11-09T07:03:19.384Z,12.23
2022-11-09T07:05:47.188Z,12.24
2022-11-09T07:08:15.546Z,12.22
2022-11-09T07:10:42.603Z,12.23
2022-11-09T07:13:10.044Z,12.28
2022-11-09T07:15:37.605Z,12.27
2022-11-09T07:18:06.906Z,12.30
2022-11-09T07:20:33.922Z,12.29
2022-11-09T07:23:00.434Z,12.28
2022-11-09T07:25:27.457Z,12.23
2022-11-09T07:27:54.674Z,12.13
2022-11-09T07:30:21.755Z,12.26
2022-11-09T07:35:35.083Z,12.36
2022-11-09T07:38:02.239Z,12.36
2022-11-09T07:40:29.893Z,12.44
2022-11-09T07:43:04.594Z,12.42
2022-11-09T07:45:32.079Z,12.42
2022-11-09T07:48:01.114Z,12.39
2022-11-09T07:50:30.103Z,12.42
2022-11-09T07:52:57.964Z,12.34
2022-11-09T07:55:25.628Z,12.45
2022-11-09T07:58:00.232Z,12.43
2022-11-09T08:00:28.368Z,12.46
2022-11-09T08:02:55.145Z,12.31
2022-11-09T08:05:22.456Z,12.30
2022-11-09T08:07:53.985Z,12.51
2022-11-09T08:10:20.717Z,12.55
2022-11-09T08:12:53.750Z,12.49
2022-11-09T08:15:20.280Z,12.43
2022-11-09T08:17:46.915Z,12.45
2022-11-09T08:20:13.580Z,12.47
2022-11-09T08:22:43.948Z,12.49
2022-11-09T08:25:11.895Z,12.30
2022-11-09T08:27:40.336Z,12.31
2022-11-09T08:30:09.310Z,12.56
2022-11-09T08:32:35.847Z,12.58
2022-11-09T08:35:03.524Z,12.63
2022-11-09T08:37:30.045Z,12.65
2022-11-09T08:39:56.645Z,12.51
2022-11-09T08:42:23.176Z,12.68
2022-11-09T08:44:49.727Z,12.72
2022-11-09T08:47:16.321Z,12.57
2022-11-09T08:49:44.181Z,12.76
2022-11-09T08:52:10.758Z,12.81
2022-11-09T08:54:37.309Z,12.84
2022-11-09T08:57:03.899Z,12.82
2022-11-09T08:59:30.678Z,12.83
2022-11-09T09:01:57.311Z,12.98
2022-11-09T09:04:24.470Z,13.12
2022-11-09T09:06:51.268Z,13.02
2022-11-09T09:09:17.947Z,13.23
2022-11-09T09:11:44.557Z,13.31
2022-11-09T09:14:11.140Z,13.33
2022-11-09T09:16:37.770Z,13.33
2022-11-09T09:19:04.993Z,13.49
2022-11-09T09:21:31.535Z,13.62
2022-11-09T09:23:58.115Z,13.60
2022-11-09T09:26:24.708Z,13.62
2022-11-09T09:28:51.753Z,13.50
2022-11-09T09:31:19.013Z,13.44
2022-11-09T09:33:47.461Z,13.58
2022-11-09T09:36:19.882Z,13.55
2022-11-09T09:38:47.228Z,13.57
2022-11-09T09:41:24.183Z,13.50
2022-11-09T09:43:56.892Z,13.27
2022-11-09T09:46:39.841Z,13.18
2022-11-09T09:49:14.599Z,13.30
2022-11-09T09:51:50.385Z,13.34
2022-11-09T09:54:24.243Z,13.41
2022-11-09T09:56:53.384Z,13.45
2022-11-09T09:59:25.613Z,13.52
2022-11-09T10:01:52.815Z,13.53
2022-11-09T10:04:23.667Z,13.54
2022-11-09T10:07:09.497Z,13.77
2022-11-09T10:09:59.806Z,13.75
2022-11-09T10:12:56.445Z,13.80
2022-11-09T10:15:30.391Z,13.78
2022-11-09T10:18:23.313Z,13.93
2022-11-09T10:21:11.843Z,13.96
2022-11-09T10:23:41.792Z,14.02
2022-11-09T10:26:18.822Z,14.11
2022-11-09T10:29:19.401Z,14.17
2022-11-09T10:31:42.723Z,14.06
2022-11-09T10:34:27.725Z,14.26
2022-11-09T10:37:10.202Z,14.25
2022-11-09T10:39:53.058Z,14.25
2022-11-09T10:42:19.662Z,14.39
2022-11-09T10:44:46.176Z,14.46
2022-11-09T10:47:14.945Z,14.36
2022-11-09T10:49:41.594Z,14.59
2022-11-09T10:52:32.840Z,14.85
2022-11-09T10:55:21.821Z,14.88
2022-11-09T10:57:56.383Z,14.77
2022-11-09T11:00:35.420Z,15.01
2022-11-09T11:03:25.097Z,14.95
2022-11-09T11:06:01.157Z,14.75
2022-11-09T11:08:35.427Z,14.89
2022-11-09T11:11:35.826Z,14.88
2022-11-09T11:14:23.161Z,14.95
2022-11-09T11:16:53.105Z,14.97
2022-11-09T11:19:37.307Z,15.04
2022-11-09T11:22:13.031Z,15.06
2022-11-09T11:24:48.046Z,15.05
2022-11-09T11:27:25.388Z,15.03
2022-11-09T11:30:00.018Z,14.95
2022-11-09T11:32:26.787Z,14.91
2022-11-09T11:35:00.311Z,14.82
2022-11-09T11:38:12.028Z,15.09
2022-11-09T11:40:54.527Z,15.07
2022-11-09T11:43:27.719Z,15.05
2022-11-09T11:46:03.929Z,14.93
2022-11-09T11:48:54.258Z,14.86
2022-11-09T11:51:23.667Z,15.01
2022-11-09T11:54:18.187Z,15.04
2022-11-09T11:57:09.116Z,15.06
2022-11-09T12:00:06.622Z,15.07
2022-11-09T12:02:39.278Z,14.96
2022-11-09T12:05:35.877Z,15.09
2022-11-09T12:08:25.537Z,14.94
2022-11-09T12:11:03.195Z,15.03
2022-11-09T12:13:55.665Z,15.25
2022-11-09T12:16:25.776Z,15.14
2022-11-09T12:19:14.241Z,15.05
2022-11-09T12:22:01.319Z,15.22
2022-11-09T12:24:50.307Z,15.24
2022-11-09T12:27:31.987Z,15.24
2022-11-09T12:30:24.986Z,15.14
2022-11-09T12:32:59.291Z,15.20
2022-11-09T12:35:33.667Z,15.16
2022-11-09T12:38:24.163Z,15.17
2022-11-09T12:40:52.012Z,15.11
2022-11-09T12:43:25.049Z,14.85
2022-11-09T12:45:53.261Z,14.96
2022-11-09T12:48:34.778Z,14.97
2022-11-09T12:51:04.855Z,14.93
2022-11-09T12:53:37.850Z,14.84
2022-11-09T12:56:20.722Z,14.81
2022-11-09T12:58:47.866Z,14.83
2022-11-09T13:01:34.418Z,14.81
2022-11-09T13:04:06.254Z,14.86
2022-11-09T13:06:33.954Z,14.91
2022-11-09T13:09:19.583Z,14.91
2022-11-09T13:11:52.140Z,14.89
2022-11-09T13:14:21.652Z,14.87
2022-11-09T13:16:53.350Z,14.84
2022-11-09T13:19:34.934Z,14.73
2022-11-09T13:22:02.965Z,14.70
2022-11-09T13:24:32.551Z,14.62
2022-11-09T13:27:02.095Z,14.67
2022-11-09T13:29:57.904Z,14.72
2022-11-09T13:32:29.588Z,14.70
2022-11-09T13:34:58.504Z,14.67
2022-11-09T13:37:47.615Z,14.76
2022-11-09T13:40:32.758Z,14.69
2022-11-09T13:43:10.220Z,14.63
2022-11-09T13:45:57.367Z,14.49
2022-11-09T13:48:49.227Z,14.60
2022-11-09T13:51:17.860Z,14.59
2022-11-09T13:54:04.588Z,14.62
2022-11-09T13:56:35.462Z,14.50
2022-11-09T13:59:20.897Z,14.65
2022-11-09T14:01:52.430Z,14.61
2022-11-09T14:04:43.705Z,14.59
2022-11-09T14:07:32.964Z,14.50
2022-11-09T14:10:24.428Z,14.45
2022-11-09T14:13:23.208Z,14.59
2022-11-09T14:16:22.433Z,14.58
2022-11-09T14:18:52.078Z,14.60
2022-11-09T14:21:28.509Z,14.54
2022-11-09T14:23:55.061Z,14.60
2022-11-09T14:26:25.222Z,14.61
2022-11-09T14:28:51.983Z,14.63
2022-11-09T14:31:29.734Z,14.64
2022-11-09T14:34:05.967Z,14.63
2022-11-09T14:36:34.972Z,14.63
2022-11-09T14:39:04.411Z,14.65
2022-11-09T14:41:31.482Z,14.68
2022-11-09T14:44:00.915Z,14.79
2022-11-09T14:46:30.688Z,14.72
2022-11-09T14:49:00.506Z,14.67
2022-11-09T14:51:48.493Z,14.59
2022-11-09T14:54:18.687Z,14.40
2022-11-09T14:56:46.349Z,14.23
2022-11-09T14:59:16.082Z,13.93
2022-11-09T15:02:00.852Z,13.86
2022-11-09T15:08:36.604Z,13.75
2022-11-09T15:13:52.187Z,13.55
2022-11-09T15:16:28.748Z,13.50
2022-11-09T15:18:55.341Z,13.52
2022-11-09T15:21:24.887Z,13.55
2022-11-09T15:24:22.161Z,13.57
2022-11-09T15:26:50.815Z,13.52
2022-11-09T15:29:40.200Z,13.55
2022-11-09T15:32:15.161Z,13.56
2022-11-09T15:34:53.115Z,13.52
2022-11-09T15:37:32.300Z,13.51
2022-11-09T15:39:59.389Z,13.56
2022-11-09T15:42:27.041Z,13.58
2022-11-09T15:44:59.331Z,13.58
2022-11-09T15:47:35.505Z,13.56
2022-11-09T15:50:15.052Z,13.49
2022-11-09T15:52:44.278Z,13.42
2022-11-09T15:55:15.586Z,13.39
2022-11-09T15:57:42.799Z,13.25
2022-11-09T16:00:19.488Z,13.29
2022-11-09T16:02:47.450Z,13.26
2022-11-09T16:05:14.364Z,13.33
2022-11-09T16:07:51.410Z,13.32
2022-11-09T16:10:20.389Z,13.29
2022-11-09T16:12:47.331Z,13.23
2022-11-09T16:15:13.982Z,13.22
2022-11-09T16:17:40.495Z,13.25
2022-11-09T16:20:07.730Z,13.23
2022-11-09T16:22:34.371Z,13.23
2022-11-09T16:25:01.600Z,13.25
2022-11-09T16:27:49.028Z,13.24
2022-11-09T16:30:15.384Z,13.10
2022-11-09T16:32:41.934Z,13.22
2022-11-09T16:35:26.191Z,13.19
2022-11-09T16:37:55.247Z,13.20
2022-11-09T16:40:22.689Z,13.21
2022-11-09T16:42:51.165Z,13.21
2022-11-09T16:45:17.773Z,13.14
2022-11-09T16:47:48.979Z,13.17
2022-11-09T16:50:16.163Z,13.16
2022-11-09T16:52:42.913Z,13.15
2022-11-09T16:55:10.498Z,13.09
2022-11-09T16:57:37.311Z,13.11
2022-11-09T17:00:06.169Z,13.11
2022-11-09T17:02:32.760Z,13.09
2022-11-09T17:04:59.413Z,12.92
2022-11-09T17:07:27.129Z,13.08
2022-11-09T17:09:53.734Z,13.04
2022-11-09T17:12:20.717Z,13.05
2022-11-09T17:14:47.513Z,13.05
2022-11-09T17:17:18.228Z,13.04
2022-11-09T17:19:47.880Z,12.97
2022-11-09T17:22:14.753Z,13.03
2022-11-09T17:24:41.753Z,12.91
2022-11-09T17:27:09.852Z,13.03
2022-11-09T17:29:37.969Z,12.96
2022-11-09T17:32:09.388Z,12.98
2022-11-09T17:34:36.308Z,12.94
2022-11-09T17:37:04.997Z,12.95
2022-11-09T17:39:32.648Z,12.96
2022-11-09T17:41:59.245Z,12.93
2022-11-09T17:44:25.812Z,12.89
2022-11-09T17:46:52.712Z,12.89
2022-11-09T17:49:19.364Z,12.91
2022-11-09T17:51:45.899Z,12.88
2022-11-09T17:54:14.709Z,12.88
2022-11-09T17:56:41.444Z,12.84
2022-11-09T17:59:08.215Z,12.70
2022-11-09T18:01:40.780Z,12.83
2022-11-09T18:04:09.669Z,12.81
2022-11-09T18:06:36.513Z,12.80
2022-11-09T18:09:39.262Z,12.82
2022-11-09T18:11:50.925Z,12.86
2022-11-09T18:14:17.419Z,12.74
2022-11-09T18:16:45.207Z,12.84
2022-11-09T18:19:12.067Z,12.78
2022-11-09T18:21:38.651Z,12.81
2022-11-09T18:24:05.486Z,12.79
2022-11-09T18:26:32.829Z,12.74
2022-11-09T18:29:00.364Z,12.75
2022-11-09T18:31:27.569Z,12.69
2022-11-09T18:33:54.151Z,12.69
2022-11-09T18:36:21.618Z,12.62
2022-11-09T18:38:51.192Z,12.61
2022-11-09T18:41:22.568Z,12.76
2022-11-09T18:43:50.768Z,12.62
2022-11-09T18:46:21.046Z,12.77
2022-11-09T18:48:52.557Z,12.75
2022-11-09T18:51:19.590Z,12.67
2022-11-09T18:53:47.357Z,12.54
2022-11-09T18:56:22.766Z,12.63
2022-11-09T18:58:52.883Z,12.58
2022-11-09T19:01:20.551Z,12.60
2022-11-09T19:03:47.189Z,12.56
2022-11-09T19:06:16.365Z,12.42
2022-11-09T19:09:01.583Z,12.54
2022-11-09T19:11:30.155Z,12.57
2022-11-09T19:13:56.700Z,12.53
2022-11-09T19:16:24.261Z,12.53
2022-11-09T19:18:50.847Z,12.51
2022-11-09T19:21:37.314Z,12.47
2022-11-09T19:24:04.307Z,12.43
2022-11-09T19:26:30.946Z,12.39
2022-11-09T19:28:57.853Z,12.37
2022-11-09T19:31:25.186Z,12.34
2022-11-09T19:33:52.690Z,12.31
2022-11-09T19:36:30.097Z,12.25
2022-11-09T19:38:58.280Z,12.25
2022-11-09T19:41:25.743Z,12.25
2022-11-09T19:43:58.703Z,12.25
2022-11-09T19:46:26.907Z,12.21
2022-11-09T19:48:53.455Z,12.23
2022-11-09T19:51:20.235Z,12.20
2022-11-09T19:53:52.055Z,12.18
2022-11-09T19:56:19.318Z,12.03
2022-11-09T19:58:54.195Z,12.18
2022-11-09T20:01:21.449Z,12.03
2022-11-09T20:03:51.905Z,12.11
2022-11-09T20:06:20.311Z,12.11
2022-11-09T20:08:47.767Z,12.06
2022-11-09T20:11:42.033Z,12.03
2022-11-09T20:14:09.947Z,12.03
2022-11-09T20:16:37.993Z,11.96
2022-11-09T20:19:05.877Z,11.97
2022-11-09T20:21:33.293Z,11.89
2022-11-09T20:24:01.845Z,11.89
2022-11-09T20:26:28.821Z,11.81
2022-11-09T20:28:55.662Z,11.81
2022-11-09T20:31:22.806Z,11.76
2022-11-09T20:33:50.620Z,11.73
2022-11-09T20:36:41.070Z,11.76
2022-11-09T20:39:14.469Z,11.73
2022-11-09T20:41:41.006Z,11.72
2022-11-09T20:44:08.207Z,11.70
2022-11-09T20:46:36.807Z,11.70
2022-11-09T20:49:04.192Z,11.68
2022-11-09T20:51:32.220Z,11.77
2022-11-09T20:54:02.485Z,11.75
2022-11-09T20:56:33.245Z,11.73
2022-11-09T20:58:59.751Z,11.75
2022-11-09T21:01:26.381Z,11.74
2022-11-09T21:03:53.849Z,11.74
2022-11-09T21:06:21.856Z,11.66
2022-11-09T21:08:50.885Z,11.65
2022-11-09T21:11:18.268Z,11.64
2022-11-09T21:13:52.114Z,11.62
2022-11-09T21:16:20.157Z,11.58
2022-11-09T21:18:47.193Z,11.57
2022-11-09T21:21:17.145Z,11.58
2022-11-09T21:24:02.759Z,11.52
2022-11-09T21:26:48.126Z,11.35
2022-11-09T21:29:38.731Z,11.33
2022-11-09T21:32:06.044Z,11.37
2022-11-09T21:34:36.878Z,11.35
2022-11-09T21:37:04.627Z,11.33
2022-11-09T21:39:31.328Z,11.28
2022-11-09T21:41:57.905Z,11.24
2022-11-09T21:44:25.165Z,11.22
2022-11-09T21:46:51.681Z,11.14
2022-11-09T21:49:18.379Z,11.10
2022-11-09T21:51:46.709Z,11.11
2022-11-09T21:54:13.291Z,11.05
2022-11-09T21:56:40.105Z,11.02
2022-11-09T21:59:06.811Z,10.99
2022-11-09T22:01:33.820Z,10.95
2022-11-09T22:04:00.455Z,10.93
2022-11-09T22:06:27.751Z,10.90
2022-11-09T22:08:54.259Z,10.88
2022-11-09T22:11:46.009Z,10.87
2022-11-09T22:14:32.871Z,10.85
2022-11-09T22:16:59.871Z,10.79
2022-11-09T22:19:45.998Z,10.94
2022-11-09T22:22:13.546Z,10.92
2022-11-09T22:24:40.168Z,10.94
2022-11-09T22:27:06.907Z,10.94
2022-11-09T22:29:33.501Z,10.86
2022-11-09T22:32:00.232Z,10.93
2022-11-09T22:34:26.815Z,10.90
2022-11-09T22:36:53.391Z,10.80
2022-11-09T22:39:20.335Z,10.88
2022-11-09T22:41:46.890Z,10.82
2022-11-09T22:44:13.543Z,10.84
2022-11-09T22:46:40.132Z,10.74
2022-11-09T22:49:08.555Z,10.81
2022-11-09T22:51:35.286Z,10.61
2022-11-09T22:54:01.807Z,10.75
2022-11-09T22:56:28.335Z,10.70
2022-11-09T22:58:55.214Z,10.67
2022-11-09T23:01:21.994Z,10.63
2022-11-09T23:03:48.612Z,10.66
2022-11-09T23:06:20.131Z,10.64
2022-11-09T23:08:47.359Z,10.62
2022-11-09T23:11:19.241Z,10.59
2022-11-09T23:13:52.476Z,10.56
2022-11-09T23:16:19.753Z,10.61
2022-11-09T23:18:56.215Z,10.60
2022-11-09T23:21:24.716Z,10.60
2022-11-09T23:23:52.284Z,10.55
2022-11-09T23:26:19.254Z,10.52
2022-11-09T23:28:46.118Z,10.51
2022-11-09T23:31:19.531Z,10.50
2022-11-09T23:33:49.088Z,10.46
2022-11-09T23:36:15.650Z,10.32
2022-11-09T23:38:42.189Z,10.40
2022-11-09T23:41:11.559Z,10.25
2022-11-09T23:43:38.574Z,10.36
2022-11-09T23:46:08.443Z,10.35
2022-11-09T23:48:35.671Z,10.36
2022-11-09T23:51:03.445Z,10.38
2022-11-09T23:53:31.494Z,10.37
2022-11-09T23:56:06.184Z,10.34
2022-11-09T23:58:33.256Z,10.31
